Kentland, Indiana
Current Conditions -  °F | °C
As of 1:35 AM on Saturday 25 Oct 2014 (Local Time) from KRZL Reporting Station
Overcast Overcast  
Wind Chill: 55°   Ceiling: 3600
Heat Index: 55°   Visibility: 7mi
Dew Point: 54°   Wind: 5mph
Humidity: 94%   Direction: 200°SSW
Pressure: 29.94"   Gusts: NA
Location:  40.77°N, 87.45°W
Report Text: KRZL 250635Z AUTO 20004KT 7SM BKN036 BKN044 OVC055 13/12 A2994 RMK AO2
Loading
Personal Weather Stations






























Interactive Weather Map
Tropical Storm Tracking
New forecast layout! Learn more

10-Day Weather Forecast

Advertisements
Track Severe Weather on mobile